sensor_id;sensor_type;location;lat;lon;timestamp;P1;durP1;ratioP1;P2;durP2;ratioP2
13218;SDS011;6674;49.152;11.918;2022-11-15T00:01:07;8.13;;;7.33;;
13218;SDS011;6674;49.152;11.918;2022-11-15T00:03:34;8.90;;;8.00;;
13218;SDS011;6674;49.152;11.918;2022-11-15T00:06:01;8.90;;;8.00;;
13218;SDS011;6674;49.152;11.918;2022-11-15T00:08:29;9.10;;;8.20;;
13218;SDS011;6674;49.152;11.918;2022-11-15T00:10:57;8.03;;;7.33;;
13218;SDS011;6674;49.152;11.918;2022-11-15T00:13:25;10.23;;;9.23;;
13218;SDS011;6674;49.152;11.918;2022-11-15T00:15:52;9.73;;;8.83;;
13218;SDS011;6674;49.152;11.918;2022-11-15T00:18:20;10.70;;;9.60;;
13218;SDS011;6674;49.152;11.918;2022-11-15T00:20:47;10.20;;;9.20;;
13218;SDS011;6674;49.152;11.918;2022-11-15T00:23:13;9.80;;;8.80;;
13218;SDS011;6674;49.152;11.918;2022-11-15T00:25:40;10.90;;;9.80;;
13218;SDS011;6674;49.152;11.918;2022-11-15T00:28:06;9.83;;;8.80;;
13218;SDS011;6674;49.152;11.918;2022-11-15T00:30:33;9.10;;;8.27;;
13218;SDS011;6674;49.152;11.918;2022-11-15T00:33:01;10.10;;;8.97;;
13218;SDS011;6674;49.152;11.918;2022-11-15T00:35:30;11.07;;;9.30;;
13218;SDS011;6674;49.152;11.918;2022-11-15T00:37:58;10.17;;;9.17;;
13218;SDS011;6674;49.152;11.918;2022-11-15T00:40:26;9.40;;;8.50;;
13218;SDS011;6674;49.152;11.918;2022-11-15T00:42:52;7.33;;;6.63;;
13218;SDS011;6674;49.152;11.918;2022-11-15T00:45:19;7.77;;;7.07;;
13218;SDS011;6674;49.152;11.918;2022-11-15T00:47:46;7.90;;;7.10;;
13218;SDS011;6674;49.152;11.918;2022-11-15T00:50:16;8.83;;;7.93;;
13218;SDS011;6674;49.152;11.918;2022-11-15T00:52:44;8.43;;;7.63;;
13218;SDS011;6674;49.152;11.918;2022-11-15T00:55:12;9.73;;;8.73;;
13218;SDS011;6674;49.152;11.918;2022-11-15T00:57:41;8.53;;;7.70;;
13218;SDS011;6674;49.152;11.918;2022-11-15T01:00:08;8.90;;;8.00;;
13218;SDS011;6674;49.152;11.918;2022-11-15T01:02:35;9.70;;;8.73;;
13218;SDS011;6674;49.152;11.918;2022-11-15T01:05:02;9.17;;;8.20;;
13218;SDS011;6674;49.152;11.918;2022-11-15T01:07:29;8.30;;;7.57;;
13218;SDS011;6674;49.152;11.918;2022-11-15T01:09:57;8.07;;;7.37;;
13218;SDS011;6674;49.152;11.918;2022-11-15T01:12:24;7.43;;;6.73;;
13218;SDS011;6674;49.152;11.918;2022-11-15T01:14:51;6.93;;;6.33;;
13218;SDS011;6674;49.152;11.918;2022-11-15T01:17:18;8.20;;;7.40;;
13218;SDS011;6674;49.152;11.918;2022-11-15T01:19:45;8.60;;;7.70;;
13218;SDS011;6674;49.152;11.918;2022-11-15T01:22:12;8.40;;;7.53;;
13218;SDS011;6674;49.152;11.918;2022-11-15T01:24:38;9.47;;;8.53;;
13218;SDS011;6674;49.152;11.918;2022-11-15T01:27:06;10.60;;;9.50;;
13218;SDS011;6674;49.152;11.918;2022-11-15T01:29:33;10.40;;;9.40;;
13218;SDS011;6674;49.152;11.918;2022-11-15T01:32:00;9.30;;;8.40;;
13218;SDS011;6674;49.152;11.918;2022-11-15T01:34:27;8.80;;;8.00;;
13218;SDS011;6674;49.152;11.918;2022-11-15T01:36:53;8.70;;;7.80;;
13218;SDS011;6674;49.152;11.918;2022-11-15T01:39:20;10.87;;;9.77;;
13218;SDS011;6674;49.152;11.918;2022-11-15T01:41:46;9.70;;;8.70;;
13218;SDS011;6674;49.152;11.918;2022-11-15T01:44:37;10.57;;;9.57;;
13218;SDS011;6674;49.152;11.918;2022-11-15T01:47:07;9.87;;;8.87;;
13218;SDS011;6674;49.152;11.918;2022-11-15T01:49:38;9.60;;;8.60;;
13218;SDS011;6674;49.152;11.918;2022-11-15T01:52:12;9.53;;;8.57;;
13218;SDS011;6674;49.152;11.918;2022-11-15T01:54:43;8.57;;;7.77;;
13218;SDS011;6674;49.152;11.918;2022-11-15T01:57:10;9.57;;;8.67;;
13218;SDS011;6674;49.152;11.918;2022-11-15T01:59:40;11.37;;;10.17;;
13218;SDS011;6674;49.152;11.918;2022-11-15T02:02:08;10.80;;;9.80;;
13218;SDS011;6674;49.152;11.918;2022-11-15T02:04:35;9.43;;;8.50;;
13218;SDS011;6674;49.152;11.918;2022-11-15T02:07:05;10.17;;;9.17;;
13218;SDS011;6674;49.152;11.918;2022-11-15T02:09:35;12.10;;;10.90;;
13218;SDS011;6674;49.152;11.918;2022-11-15T02:12:03;10.57;;;9.43;;
13218;SDS011;6674;49.152;11.918;2022-11-15T02:14:30;10.50;;;9.47;;
13218;SDS011;6674;49.152;11.918;2022-11-15T02:17:01;10.50;;;9.43;;
13218;SDS011;6674;49.152;11.918;2022-11-15T02:19:40;10.53;;;9.43;;
13218;SDS011;6674;49.152;11.918;2022-11-15T02:22:34;9.30;;;8.37;;
13218;SDS011;6674;49.152;11.918;2022-11-15T02:25:17;8.37;;;7.57;;
13218;SDS011;6674;49.152;11.918;2022-11-15T02:28:10;9.33;;;8.43;;
13218;SDS011;6674;49.152;11.918;2022-11-15T02:30:56;9.57;;;8.67;;
13218;SDS011;6674;49.152;11.918;2022-11-15T02:33:32;11.30;;;10.20;;
13218;SDS011;6674;49.152;11.918;2022-11-15T02:36:06;11.63;;;10.43;;
13218;SDS011;6674;49.152;11.918;2022-11-15T02:38:40;13.13;;;11.03;;
13218;SDS011;6674;49.152;11.918;2022-11-15T02:41:13;10.63;;;9.53;;
13218;SDS011;6674;49.152;11.918;2022-11-15T02:43:44;10.47;;;8.97;;
13218;SDS011;6674;49.152;11.918;2022-11-15T02:46:26;8.70;;;7.80;;
13218;SDS011;6674;49.152;11.918;2022-11-15T02:49:15;9.47;;;8.47;;
13218;SDS011;6674;49.152;11.918;2022-11-15T02:51:42;8.37;;;7.57;;
13218;SDS011;6674;49.152;11.918;2022-11-15T02:54:13;8.43;;;7.23;;
13218;SDS011;6674;49.152;11.918;2022-11-15T02:56:47;8.37;;;7.50;;
13218;SDS011;6674;49.152;11.918;2022-11-15T02:59:32;7.70;;;6.90;;
13218;SDS011;6674;49.152;11.918;2022-11-15T03:02:14;7.70;;;6.93;;
13218;SDS011;6674;49.152;11.918;2022-11-15T03:04:52;7.97;;;7.10;;
13218;SDS011;6674;49.152;11.918;2022-11-15T03:07:23;8.27;;;7.47;;
13218;SDS011;6674;49.152;11.918;2022-11-15T03:09:56;10.37;;;9.37;;
13218;SDS011;6674;49.152;11.918;2022-11-15T03:12:34;10.60;;;9.10;;
13218;SDS011;6674;49.152;11.918;2022-11-15T03:15:08;9.97;;;8.97;;
13218;SDS011;6674;49.152;11.918;2022-11-15T03:17:42;11.47;;;10.20;;
13218;SDS011;6674;49.152;11.918;2022-11-15T03:20:15;10.63;;;9.53;;
13218;SDS011;6674;49.152;11.918;2022-11-15T03:22:44;9.30;;;8.30;;
13218;SDS011;6674;49.152;11.918;2022-11-15T03:25:17;9.03;;;8.13;;
13218;SDS011;6674;49.152;11.918;2022-11-15T03:27:48;9.47;;;8.57;;
13218;SDS011;6674;49.152;11.918;2022-11-15T03:30:18;9.47;;;8.43;;
13218;SDS011;6674;49.152;11.918;2022-11-15T03:32:49;9.63;;;8.63;;
13218;SDS011;6674;49.152;11.918;2022-11-15T03:35:20;10.87;;;9.77;;
13218;SDS011;6674;49.152;11.918;2022-11-15T03:37:49;9.87;;;8.90;;
13218;SDS011;6674;49.152;11.918;2022-11-15T03:40:21;10.53;;;9.40;;
13218;SDS011;6674;49.152;11.918;2022-11-15T03:42:54;11.63;;;10.50;;
13218;SDS011;6674;49.152;11.918;2022-11-15T03:45:29;10.80;;;9.77;;
13218;SDS011;6674;49.152;11.918;2022-11-15T03:48:01;12.17;;;10.77;;
13218;SDS011;6674;49.152;11.918;2022-11-15T03:50:31;11.90;;;10.70;;
13218;SDS011;6674;49.152;11.918;2022-11-15T03:52:58;11.70;;;10.50;;
13218;SDS011;6674;49.152;11.918;2022-11-15T03:55:25;10.40;;;9.30;;
13218;SDS011;6674;49.152;11.918;2022-11-15T03:57:52;11.70;;;10.47;;
13218;SDS011;6674;49.152;11.918;2022-11-15T04:00:22;11.57;;;10.37;;
13218;SDS011;6674;49.152;11.918;2022-11-15T04:02:48;11.77;;;10.60;;
13218;SDS011;6674;49.152;11.918;2022-11-15T04:05:16;12.23;;;10.93;;
13218;SDS011;6674;49.152;11.918;2022-11-15T04:07:43;11.00;;;9.90;;
13218;SDS011;6674;49.152;11.918;2022-11-15T04:10:10;12.67;;;11.37;;
13218;SDS011;6674;49.152;11.918;2022-11-15T04:12:38;11.80;;;10.60;;
13218;SDS011;6674;49.152;11.918;2022-11-15T04:15:08;10.17;;;9.17;;
13218;SDS011;6674;49.152;11.918;2022-11-15T04:17:37;10.77;;;9.67;;
13218;SDS011;6674;49.152;11.918;2022-11-15T04:20:06;9.23;;;8.33;;
13218;SDS011;6674;49.152;11.918;2022-11-15T04:22:53;9.97;;;8.87;;
13218;SDS011;6674;49.152;11.918;2022-11-15T04:25:38;10.10;;;8.87;;
13218;SDS011;6674;49.152;11.918;2022-11-15T04:28:05;10.07;;;9.07;;
13218;SDS011;6674;49.152;11.918;2022-11-15T04:30:32;9.70;;;8.30;;
13218;SDS011;6674;49.152;11.918;2022-11-15T04:32:59;9.90;;;8.90;;
13218;SDS011;6674;49.152;11.918;2022-11-15T04:35:25;10.87;;;9.77;;
13218;SDS011;6674;49.152;11.918;2022-11-15T04:37:53;9.23;;;8.33;;
13218;SDS011;6674;49.152;11.918;2022-11-15T04:40:20;8.90;;;8.10;;
13218;SDS011;6674;49.152;11.918;2022-11-15T04:42:47;10.13;;;9.13;;
13218;SDS011;6674;49.152;11.918;2022-11-15T04:45:13;10.47;;;9.37;;
13218;SDS011;6674;49.152;11.918;2022-11-15T04:47:42;9.40;;;8.50;;
13218;SDS011;6674;49.152;11.918;2022-11-15T04:50:09;9.00;;;8.10;;
13218;SDS011;6674;49.152;11.918;2022-11-15T04:52:37;10.70;;;9.63;;
13218;SDS011;6674;49.152;11.918;2022-11-15T04:55:06;9.70;;;8.80;;
13218;SDS011;6674;49.152;11.918;2022-11-15T04:57:33;10.50;;;9.50;;
13218;SDS011;6674;49.152;11.918;2022-11-15T04:59:59;10.47;;;9.37;;
13218;SDS011;6674;49.152;11.918;2022-11-15T05:02:26;10.53;;;9.53;;
13218;SDS011;6674;49.152;11.918;2022-11-15T05:05:13;10.27;;;9.33;;
13218;SDS011;6674;49.152;11.918;2022-11-15T05:07:39;9.90;;;9.00;;
13218;SDS011;6674;49.152;11.918;2022-11-15T05:10:07;10.50;;;9.17;;
13218;SDS011;6674;49.152;11.918;2022-11-15T05:12:34;9.63;;;8.63;;
13218;SDS011;6674;49.152;11.918;2022-11-15T05:15:02;12.30;;;11.00;;
13218;SDS011;6674;49.152;11.918;2022-11-15T05:17:29;10.20;;;8.73;;
13218;SDS011;6674;49.152;11.918;2022-11-15T05:19:55;10.50;;;9.47;;
13218;SDS011;6674;49.152;11.918;2022-11-15T05:22:22;12.23;;;10.93;;
13218;SDS011;6674;49.152;11.918;2022-11-15T05:24:49;12.10;;;10.80;;
13218;SDS011;6674;49.152;11.918;2022-11-15T05:27:17;11.47;;;10.37;;
13218;SDS011;6674;49.152;11.918;2022-11-15T05:29:43;9.87;;;8.73;;
13218;SDS011;6674;49.152;11.918;2022-11-15T05:32:10;11.47;;;10.30;;
13218;SDS011;6674;49.152;11.918;2022-11-15T05:34:38;10.73;;;9.63;;
13218;SDS011;6674;49.152;11.918;2022-11-15T05:37:05;11.20;;;10.10;;
13218;SDS011;6674;49.152;11.918;2022-11-15T05:39:32;10.03;;;9.03;;
13218;SDS011;6674;49.152;11.918;2022-11-15T05:41:59;11.23;;;10.10;;
13218;SDS011;6674;49.152;11.918;2022-11-15T05:44:30;10.10;;;9.10;;
13218;SDS011;6674;49.152;11.918;2022-11-15T05:46:58;10.17;;;9.17;;
13218;SDS011;6674;49.152;11.918;2022-11-15T05:49:25;9.57;;;8.63;;
13218;SDS011;6674;49.152;11.918;2022-11-15T05:51:56;10.63;;;9.63;;
13218;SDS011;6674;49.152;11.918;2022-11-15T05:54:23;10.20;;;9.10;;
13218;SDS011;6674;49.152;11.918;2022-11-15T05:56:51;10.00;;;9.00;;
13218;SDS011;6674;49.152;11.918;2022-11-15T05:59:18;9.33;;;8.33;;
13218;SDS011;6674;49.152;11.918;2022-11-15T06:01:47;10.23;;;8.97;;
13218;SDS011;6674;49.152;11.918;2022-11-15T06:04:14;10.17;;;9.17;;
13218;SDS011;6674;49.152;11.918;2022-11-15T06:06:41;9.47;;;8.50;;
13218;SDS011;6674;49.152;11.918;2022-11-15T06:09:08;9.47;;;8.50;;
13218;SDS011;6674;49.152;11.918;2022-11-15T06:11:35;8.83;;;7.93;;
13218;SDS011;6674;49.152;11.918;2022-11-15T06:14:01;8.20;;;7.40;;
13218;SDS011;6674;49.152;11.918;2022-11-15T06:16:28;8.60;;;7.80;;
13218;SDS011;6674;49.152;11.918;2022-11-15T06:18:56;8.20;;;7.30;;
13218;SDS011;6674;49.152;11.918;2022-11-15T06:21:23;8.67;;;7.87;;
13218;SDS011;6674;49.152;11.918;2022-11-15T06:23:53;9.60;;;8.57;;
13218;SDS011;6674;49.152;11.918;2022-11-15T06:26:19;8.57;;;7.77;;
13218;SDS011;6674;49.152;11.918;2022-11-15T06:28:46;9.07;;;8.17;;
13218;SDS011;6674;49.152;11.918;2022-11-15T06:31:13;8.77;;;7.97;;
13218;SDS011;6674;49.152;11.918;2022-11-15T06:33:40;9.83;;;8.83;;
13218;SDS011;6674;49.152;11.918;2022-11-15T06:36:10;8.83;;;7.93;;
13218;SDS011;6674;49.152;11.918;2022-11-15T06:38:40;9.93;;;8.67;;
13218;SDS011;6674;49.152;11.918;2022-11-15T06:41:07;10.23;;;9.23;;
13218;SDS011;6674;49.152;11.918;2022-11-15T06:43:35;9.10;;;8.20;;
13218;SDS011;6674;49.152;11.918;2022-11-15T06:46:02;8.73;;;7.93;;
13218;SDS011;6674;49.152;11.918;2022-11-15T06:48:31;8.87;;;7.97;;
13218;SDS011;6674;49.152;11.918;2022-11-15T06:50:59;7.83;;;7.03;;
13218;SDS011;6674;49.152;11.918;2022-11-15T06:53:29;7.13;;;6.43;;
13218;SDS011;6674;49.152;11.918;2022-11-15T06:55:58;7.13;;;6.43;;
13218;SDS011;6674;49.152;11.918;2022-11-15T06:58:25;8.97;;;8.07;;
13218;SDS011;6674;49.152;11.918;2022-11-15T07:00:52;9.63;;;8.73;;
13218;SDS011;6674;49.152;11.918;2022-11-15T07:03:19;8.83;;;8.03;;
13218;SDS011;6674;49.152;11.918;2022-11-15T07:05:50;8.60;;;7.73;;
13218;SDS011;6674;49.152;11.918;2022-11-15T07:08:18;9.03;;;8.13;;
13218;SDS011;6674;49.152;11.918;2022-11-15T07:10:46;8.77;;;7.97;;
13218;SDS011;6674;49.152;11.918;2022-11-15T07:13:13;10.53;;;9.40;;
13218;SDS011;6674;49.152;11.918;2022-11-15T07:15:40;9.60;;;8.63;;
13218;SDS011;6674;49.152;11.918;2022-11-15T07:18:06;12.17;;;10.97;;
13218;SDS011;6674;49.152;11.918;2022-11-15T07:20:33;12.10;;;11.00;;
13218;SDS011;6674;49.152;11.918;2022-11-15T07:23:00;11.83;;;10.07;;
13218;SDS011;6674;49.152;11.918;2022-11-15T07:25:27;10.93;;;9.77;;
13218;SDS011;6674;49.152;11.918;2022-11-15T07:27:56;11.80;;;10.60;;
13218;SDS011;6674;49.152;11.918;2022-11-15T07:30:23;11.67;;;10.13;;
13218;SDS011;6674;49.152;11.918;2022-11-15T07:32:52;11.10;;;9.90;;
13218;SDS011;6674;49.152;11.918;2022-11-15T07:35:19;10.53;;;9.43;;
13218;SDS011;6674;49.152;11.918;2022-11-15T07:37:52;8.23;;;7.43;;
13218;SDS011;6674;49.152;11.918;2022-11-15T07:40:19;10.60;;;9.50;;
13218;SDS011;6674;49.152;11.918;2022-11-15T07:42:46;10.73;;;9.67;;
13218;SDS011;6674;49.152;11.918;2022-11-15T07:45:23;10.77;;;9.43;;
13218;SDS011;6674;49.152;11.918;2022-11-15T07:47:52;11.37;;;10.17;;
13218;SDS011;6674;49.152;11.918;2022-11-15T07:50:19;11.27;;;10.17;;
13218;SDS011;6674;49.152;11.918;2022-11-15T07:52:45;12.60;;;11.10;;
13218;SDS011;6674;49.152;11.918;2022-11-15T07:55:12;11.47;;;10.27;;
13218;SDS011;6674;49.152;11.918;2022-11-15T07:57:39;11.70;;;10.53;;
13218;SDS011;6674;49.152;11.918;2022-11-15T08:00:06;13.13;;;11.83;;
13218;SDS011;6674;49.152;11.918;2022-11-15T08:02:35;11.77;;;10.53;;
13218;SDS011;6674;49.152;11.918;2022-11-15T08:05:02;12.53;;;11.27;;
13218;SDS011;6674;49.152;11.918;2022-11-15T08:07:29;12.07;;;10.97;;
13218;SDS011;6674;49.152;11.918;2022-11-15T08:09:57;12.60;;;11.30;;
13218;SDS011;6674;49.152;11.918;2022-11-15T08:12:26;13.20;;;11.60;;
13218;SDS011;6674;49.152;11.918;2022-11-15T08:14:53;10.83;;;9.83;;
13218;SDS011;6674;49.152;11.918;2022-11-15T08:17:20;15.93;;;14.23;;
13218;SDS011;6674;49.152;11.918;2022-11-15T08:19:48;11.90;;;10.70;;
13218;SDS011;6674;49.152;11.918;2022-11-15T08:22:15;10.90;;;9.80;;
13218;SDS011;6674;49.152;11.918;2022-11-15T08:24:42;11.80;;;10.57;;
13218;SDS011;6674;49.152;11.918;2022-11-15T08:27:08;10.27;;;9.27;;
13218;SDS011;6674;49.152;11.918;2022-11-15T08:29:40;11.23;;;10.13;;
13218;SDS011;6674;49.152;11.918;2022-11-15T08:32:07;10.23;;;9.23;;
13218;SDS011;6674;49.152;11.918;2022-11-15T08:34:34;11.73;;;10.53;;
13218;SDS011;6674;49.152;11.918;2022-11-15T08:37:02;12.17;;;10.97;;
13218;SDS011;6674;49.152;11.918;2022-11-15T08:39:29;11.30;;;9.70;;
13218;SDS011;6674;49.152;11.918;2022-11-15T08:41:55;10.93;;;9.83;;
13218;SDS011;6674;49.152;11.918;2022-11-15T08:44:22;10.10;;;9.10;;
13218;SDS011;6674;49.152;11.918;2022-11-15T08:46:50;12.40;;;11.10;;
13218;SDS011;6674;49.152;11.918;2022-11-15T08:49:16;13.43;;;12.00;;
13218;SDS011;6674;49.152;11.918;2022-11-15T08:51:43;11.47;;;10.27;;
13218;SDS011;6674;49.152;11.918;2022-11-15T08:54:12;11.43;;;10.23;;
13218;SDS011;6674;49.152;11.918;2022-11-15T08:56:39;11.57;;;10.37;;
13218;SDS011;6674;49.152;11.918;2022-11-15T08:59:06;9.83;;;8.83;;
13218;SDS011;6674;49.152;11.918;2022-11-15T09:01:33;10.00;;;9.00;;
13218;SDS011;6674;49.152;11.918;2022-11-15T09:04:00;10.07;;;9.10;;
13218;SDS011;6674;49.152;11.918;2022-11-15T09:06:27;11.00;;;9.67;;
13218;SDS011;6674;49.152;11.918;2022-11-15T09:08:53;11.23;;;10.13;;
13218;SDS011;6674;49.152;11.918;2022-11-15T09:11:21;12.30;;;11.10;;
13218;SDS011;6674;49.152;11.918;2022-11-15T09:13:48;12.80;;;11.50;;
13218;SDS011;6674;49.152;11.918;2022-11-15T09:16:15;13.23;;;11.90;;
13218;SDS011;6674;49.152;11.918;2022-11-15T09:18:42;12.73;;;11.50;;
13218;SDS011;6674;49.152;11.918;2022-11-15T09:21:08;12.83;;;11.63;;
13218;SDS011;6674;49.152;11.918;2022-11-15T09:23:35;13.50;;;11.97;;
13218;SDS011;6674;49.152;11.918;2022-11-15T09:26:03;12.70;;;11.40;;
13218;SDS011;6674;49.152;11.918;2022-11-15T09:28:32;12.43;;;11.23;;
13218;SDS011;6674;49.152;11.918;2022-11-15T09:31:00;13.33;;;12.03;;
13218;SDS011;6674;49.152;11.918;2022-11-15T09:33:28;12.10;;;10.90;;
13218;SDS011;6674;49.152;11.918;2022-11-15T09:35:59;12.13;;;10.93;;
13218;SDS011;6674;49.152;11.918;2022-11-15T09:38:27;13.60;;;12.27;;
13218;SDS011;6674;49.152;11.918;2022-11-15T09:40:57;12.80;;;11.43;;
13218;SDS011;6674;49.152;11.918;2022-11-15T09:43:42;13.50;;;12.10;;
13218;SDS011;6674;49.152;11.918;2022-11-15T09:46:16;11.67;;;10.50;;
13218;SDS011;6674;49.152;11.918;2022-11-15T09:48:50;12.77;;;10.83;;
13218;SDS011;6674;49.152;11.918;2022-11-15T09:51:26;11.57;;;10.37;;
13218;SDS011;6674;49.152;11.918;2022-11-15T09:53:57;12.00;;;10.80;;
13218;SDS011;6674;49.152;11.918;2022-11-15T09:56:29;14.00;;;11.00;;
13218;SDS011;6674;49.152;11.918;2022-11-15T09:59:01;10.60;;;9.60;;
13218;SDS011;6674;49.152;11.918;2022-11-15T10:01:41;10.83;;;9.80;;
13218;SDS011;6674;49.152;11.918;2022-11-15T10:04:15;11.27;;;10.17;;
13218;SDS011;6674;49.152;11.918;2022-11-15T10:06:43;12.97;;;11.60;;
13218;SDS011;6674;49.152;11.918;2022-11-15T10:09:17;12.63;;;11.43;;
13218;SDS011;6674;49.152;11.918;2022-11-15T10:11:50;13.37;;;11.43;;
13218;SDS011;6674;49.152;11.918;2022-11-15T10:14:19;11.57;;;10.20;;
13218;SDS011;6674;49.152;11.918;2022-11-15T10:19:55;10.90;;;9.90;;
13218;SDS011;6674;49.152;11.918;2022-11-15T10:22:28;10.17;;;9.17;;
13218;SDS011;6674;49.152;11.918;2022-11-15T10:25:09;10.60;;;9.60;;
13218;SDS011;6674;49.152;11.918;2022-11-15T10:27:41;10.97;;;9.97;;
13218;SDS011;6674;49.152;11.918;2022-11-15T10:30:12;10.20;;;9.20;;
13218;SDS011;6674;49.152;11.918;2022-11-15T10:32:41;9.60;;;8.70;;
13218;SDS011;6674;49.152;11.918;2022-11-15T10:35:16;10.40;;;9.33;;
13218;SDS011;6674;49.152;11.918;2022-11-15T10:37:44;11.23;;;10.23;;
13218;SDS011;6674;49.152;11.918;2022-11-15T10:40:15;9.43;;;8.53;;
13218;SDS011;6674;49.152;11.918;2022-11-15T10:42:43;10.10;;;9.13;;
13218;SDS011;6674;49.152;11.918;2022-11-15T10:45:23;9.80;;;8.80;;
13218;SDS011;6674;49.152;11.918;2022-11-15T10:47:52;9.40;;;8.50;;
13218;SDS011;6674;49.152;11.918;2022-11-15T10:50:27;9.27;;;8.37;;
13218;SDS011;6674;49.152;11.918;2022-11-15T10:52:55;9.23;;;8.33;;
13218;SDS011;6674;49.152;11.918;2022-11-15T10:55:26;8.70;;;7.83;;
13218;SDS011;6674;49.152;11.918;2022-11-15T10:57:56;9.50;;;8.40;;
13218;SDS011;6674;49.152;11.918;2022-11-15T11:00:33;9.03;;;8.23;;
13218;SDS011;6674;49.152;11.918;2022-11-15T11:03:04;8.80;;;7.90;;
13218;SDS011;6674;49.152;11.918;2022-11-15T11:05:33;9.90;;;9.00;;
13218;SDS011;6674;49.152;11.918;2022-11-15T11:08:03;8.13;;;7.37;;
13218;SDS011;6674;49.152;11.918;2022-11-15T11:10:31;7.77;;;7.07;;
13218;SDS011;6674;49.152;11.918;2022-11-15T11:13:12;8.80;;;7.93;;
13218;SDS011;6674;49.152;11.918;2022-11-15T11:15:40;9.00;;;8.20;;
13218;SDS011;6674;49.152;11.918;2022-11-15T11:18:12;7.93;;;7.23;;
13218;SDS011;6674;49.152;11.918;2022-11-15T11:20:48;7.97;;;7.17;;
13218;SDS011;6674;49.152;11.918;2022-11-15T11:23:23;8.40;;;7.60;;
13218;SDS011;6674;49.152;11.918;2022-11-15T11:26:05;8.00;;;7.23;;
13218;SDS011;6674;49.152;11.918;2022-11-15T11:28:43;7.10;;;6.50;;
13218;SDS011;6674;49.152;11.918;2022-11-15T11:31:24;8.20;;;7.50;;
13218;SDS011;6674;49.152;11.918;2022-11-15T11:33:59;7.80;;;6.97;;
13218;SDS011;6674;49.152;11.918;2022-11-15T11:36:33;7.50;;;6.80;;
13218;SDS011;6674;49.152;11.918;2022-11-15T11:39:13;7.30;;;6.70;;
13218;SDS011;6674;49.152;11.918;2022-11-15T11:41:51;7.40;;;6.70;;
13218;SDS011;6674;49.152;11.918;2022-11-15T11:44:28;6.93;;;6.23;;
13218;SDS011;6674;49.152;11.918;2022-11-15T11:47:02;7.00;;;6.30;;
13218;SDS011;6674;49.152;11.918;2022-11-15T11:49:37;7.33;;;6.63;;
13218;SDS011;6674;49.152;11.918;2022-11-15T11:52:11;7.27;;;6.57;;
13218;SDS011;6674;49.152;11.918;2022-11-15T11:54:43;6.60;;;6.00;;
13218;SDS011;6674;49.152;11.918;2022-11-15T11:57:16;7.10;;;6.50;;
13218;SDS011;6674;49.152;11.918;2022-11-15T11:59:48;6.97;;;6.37;;
13218;SDS011;6674;49.152;11.918;2022-11-15T12:02:28;6.47;;;5.97;;
13218;SDS011;6674;49.152;11.918;2022-11-15T12:04:57;6.23;;;5.63;;
13218;SDS011;6674;49.152;11.918;2022-11-15T12:07:32;5.90;;;5.40;;
13218;SDS011;6674;49.152;11.918;2022-11-15T12:10:03;6.77;;;6.17;;
13218;SDS011;6674;49.152;11.918;2022-11-15T12:12:38;6.60;;;6.10;;
13218;SDS011;6674;49.152;11.918;2022-11-15T12:15:11;6.40;;;5.70;;
13218;SDS011;6674;49.152;11.918;2022-11-15T12:17:43;6.13;;;5.53;;
13218;SDS011;6674;49.152;11.918;2022-11-15T12:20:15;6.10;;;5.60;;
13218;SDS011;6674;49.152;11.918;2022-11-15T12:22:44;6.07;;;5.47;;
13218;SDS011;6674;49.152;11.918;2022-11-15T12:25:16;6.53;;;5.93;;
13218;SDS011;6674;49.152;11.918;2022-11-15T12:27:48;5.80;;;5.30;;
13218;SDS011;6674;49.152;11.918;2022-11-15T12:30:19;5.83;;;5.33;;
13218;SDS011;6674;49.152;11.918;2022-11-15T12:32:52;5.90;;;5.30;;
13218;SDS011;6674;49.152;11.918;2022-11-15T12:35:26;7.30;;;6.63;;
13218;SDS011;6674;49.152;11.918;2022-11-15T12:37:55;6.63;;;6.03;;
13218;SDS011;6674;49.152;11.918;2022-11-15T12:40:23;5.97;;;5.37;;
13218;SDS011;6674;49.152;11.918;2022-11-15T12:42:58;5.63;;;5.13;;
13218;SDS011;6674;49.152;11.918;2022-11-15T12:45:28;6.50;;;5.90;;
13218;SDS011;6674;49.152;11.918;2022-11-15T12:50:54;6.77;;;6.17;;
13218;SDS011;6674;49.152;11.918;2022-11-15T12:53:26;6.10;;;5.60;;
13218;SDS011;6674;49.152;11.918;2022-11-15T12:58:46;6.80;;;6.20;;
13218;SDS011;6674;49.152;11.918;2022-11-15T13:04:22;6.40;;;5.77;;
13218;SDS011;6674;49.152;11.918;2022-11-15T13:06:53;6.10;;;5.40;;
13218;SDS011;6674;49.152;11.918;2022-11-15T13:15:39;6.93;;;6.33;;
13218;SDS011;6674;49.152;11.918;2022-11-15T13:18:30;7.60;;;6.80;;
13218;SDS011;6674;49.152;11.918;2022-11-15T13:21:02;7.43;;;6.80;;
13218;SDS011;6674;49.152;11.918;2022-11-15T13:23:55;6.23;;;5.73;;
13218;SDS011;6674;49.152;11.918;2022-11-15T13:26:22;7.50;;;6.67;;
13218;SDS011;6674;49.152;11.918;2022-11-15T13:28:49;6.53;;;6.00;;
13218;SDS011;6674;49.152;11.918;2022-11-15T13:31:24;6.97;;;6.37;;
13218;SDS011;6674;49.152;11.918;2022-11-15T13:33:53;6.80;;;6.10;;
13218;SDS011;6674;49.152;11.918;2022-11-15T13:36:23;6.40;;;5.80;;
13218;SDS011;6674;49.152;11.918;2022-11-15T13:38:57;6.80;;;6.10;;
13218;SDS011;6674;49.152;11.918;2022-11-15T13:41:27;6.33;;;5.83;;
13218;SDS011;6674;49.152;11.918;2022-11-15T13:43:55;6.40;;;5.80;;
13218;SDS011;6674;49.152;11.918;2022-11-15T13:46:23;6.40;;;5.90;;
13218;SDS011;6674;49.152;11.918;2022-11-15T13:48:52;6.03;;;5.53;;
13218;SDS011;6674;49.152;11.918;2022-11-15T13:51:23;6.60;;;6.00;;
13218;SDS011;6674;49.152;11.918;2022-11-15T13:53:54;6.63;;;6.10;;
13218;SDS011;6674;49.152;11.918;2022-11-15T13:56:25;7.10;;;6.50;;
13218;SDS011;6674;49.152;11.918;2022-11-15T13:58:54;6.73;;;6.13;;
13218;SDS011;6674;49.152;11.918;2022-11-15T14:01:21;6.40;;;5.80;;
13218;SDS011;6674;49.152;11.918;2022-11-15T14:03:50;5.93;;;5.43;;
13218;SDS011;6674;49.152;11.918;2022-11-15T14:06:20;6.53;;;5.93;;
13218;SDS011;6674;49.152;11.918;2022-11-15T14:09:18;6.53;;;5.93;;
13218;SDS011;6674;49.152;11.918;2022-11-15T14:11:55;6.33;;;5.73;;
13218;SDS011;6674;49.152;11.918;2022-11-15T14:14:23;5.43;;;5.00;;
13218;SDS011;6674;49.152;11.918;2022-11-15T14:16:51;5.63;;;5.13;;
13218;SDS011;6674;49.152;11.918;2022-11-15T14:19:39;5.87;;;5.37;;
13218;SDS011;6674;49.152;11.918;2022-11-15T14:22:13;6.60;;;6.00;;
13218;SDS011;6674;49.152;11.918;2022-11-15T14:24:43;6.10;;;5.53;;
13218;SDS011;6674;49.152;11.918;2022-11-15T14:27:22;5.97;;;5.47;;
13218;SDS011;6674;49.152;11.918;2022-11-15T14:29:50;5.97;;;5.37;;
13218;SDS011;6674;49.152;11.918;2022-11-15T14:32:19;5.60;;;5.10;;
13218;SDS011;6674;49.152;11.918;2022-11-15T14:34:47;5.77;;;5.27;;
13218;SDS011;6674;49.152;11.918;2022-11-15T14:37:18;6.10;;;5.60;;
13218;SDS011;6674;49.152;11.918;2022-11-15T14:39:48;5.50;;;5.10;;
13218;SDS011;6674;49.152;11.918;2022-11-15T14:42:15;6.00;;;5.50;;
13218;SDS011;6674;49.152;11.918;2022-11-15T14:44:43;5.57;;;5.10;;
13218;SDS011;6674;49.152;11.918;2022-11-15T14:47:09;5.67;;;5.17;;
13218;SDS011;6674;49.152;11.918;2022-11-15T14:49:36;5.80;;;5.30;;
13218;SDS011;6674;49.152;11.918;2022-11-15T14:52:04;5.77;;;5.30;;
13218;SDS011;6674;49.152;11.918;2022-11-15T14:54:38;6.20;;;5.60;;
13218;SDS011;6674;49.152;11.918;2022-11-15T14:57:06;6.37;;;5.80;;
13218;SDS011;6674;49.152;11.918;2022-11-15T14:59:33;6.63;;;6.03;;
13218;SDS011;6674;49.152;11.918;2022-11-15T15:01:59;6.43;;;5.93;;
13218;SDS011;6674;49.152;11.918;2022-11-15T15:04:26;6.83;;;6.20;;
13218;SDS011;6674;49.152;11.918;2022-11-15T15:06:53;6.47;;;5.70;;
13218;SDS011;6674;49.152;11.918;2022-11-15T15:09:19;6.07;;;5.57;;
13218;SDS011;6674;49.152;11.918;2022-11-15T15:11:46;5.63;;;5.23;;
13218;SDS011;6674;49.152;11.918;2022-11-15T15:14:14;6.33;;;5.70;;